Budweis, República Checa

12:17 PM CEST en Abril 28, 2017 (GMT +0200)
Malé Dubičné | | Change Station

Alt 1564 ft 48.98 °N, 14.54 °E | Updated 1 minute ago

Lluvia
Lluvia
40.3 ° F
Sensación térmica 40 ° F
N
0.0
Viento Variable Viento desde Norte
Gusts 0.6 mph

Hoy
Alta -- | Baja -- ° F
--% Posibilidad de precipitaciones
Ayer
Alta -- | Baja -- ° F
Precip. -- pul
Presión 29.80 pul
Visibilidad 6.2 Millas
Nubes Baja 500 ft
Muy nublado 900 ft
Vientos helados 40 ° F
Punto de rocío 36 ° F
Humedad 85%
Precipitaciones 0.10 pul
Espesor de la nieve No disponible.
5:46 AM 8:13 PM
Creciente, 6% visible
METAR LOWL 280950Z 28005KT 240V310 9999 RA FEW005 BKN009 03/02 Q1009 TEMPO -RA FEW005 SCT008 BKN020
Presión 29.80 pul
Visibilidad 6.2 Millas
Nubes Baja 500 ft
Muy nublado 900 ft
Vientos helados 40 ° F
Punto de rocío 36 ° F
Humedad 85%
Precipitaciones 0.10 pul
Espesor de la nieve No disponible.
5:46 AM 8:13 PM
Creciente, 6% visible
METAR LOWL 280950Z 28005KT 240V310 9999 RA FEW005 BKN009 03/02 Q1009 TEMPO -RA FEW005 SCT008 BKN020

Get Severe Weather Alerts

Thanks for signing up!

Be on the lookout for a verification email in your inbox.

You'll start receiving the daily forecast at 8 AM.

×

10-Day Weather Forecast

×

Almanac

Astronomía

Apr. 28, 2017 Salida Puesta
Hora real
Crepúsculo civil
Crepúsculo náutico
Crepúsculo astronómico
Luna
Horas de luz
Horas de luz
Tomorrow will be .
, % of the Moon is Illuminated

Extremos de hoy

Máximos del país Bajas del país

Community

WunderPhotos

WunderBlog® & News

Nearby

Calidad del aire

  Calidad del aire Índice AQ Contaminante
Not available.

Grosos de nieve

Estación Profundido Altura

Actividad de terremotos

Ciudad Distance Mag. Tiempo y dato
Magnitud mínima muestra es 2,5.

Temperaturas de aguas costeras

Lugar Temperatura

Stations

Estaciones meteorológicas cercanas

Ubicación de la estación Temp. Vientos helados Punto de rocío Humedad Viento Precip. Alt Actualizado Tipo